KECP

Northwest Florida Beaches International Airport

Panama City, Florida, USA
METAR KECP 181953Z 21007KT 10SM OVC014 19/16 A3005 RMK AO2 RAB37E44 SLP187 P0000 T01940156
Observed Flight Rules
Jan-18 @ 19:53 UTC (59 minutes ago) Marginal Visual Flight Rules
Wind Visibility Clouds
210° at 7 knots 10 miles
  • Overcast at 1,400' AGL
Temperatures Readings Precipitation
Current 19°C / 66°F
Dewpoint 16°C / 61°F
Humidity 83%
Altimeter 30.05" Hg
Pressure 1018.7 hPa
Elevation 21
Current Rain 0.01
METAR KECP 181953Z 21007KT 10SM OVC014 19/16 A3005 RMK AO2 RAB37E44 SLP187 P0000 T01940156
Observed Flight Rules
Jan-18 @ 19:53 UTC
(59 minutes ago)
MVFR
Wind Visibility
210° at 7 knots 10 miles
Clouds
  • Overcast at 1,400' AGL
Temperature Dewpoint
19°C / 66°F 16°C / 61°F
Humidity Altimeter Pressure
83% 30.05" Hg 1018.7 hPa
Current Rain
0.01